createdAt,value
2023-08-26T00:00:26.848Z,19.34
2023-08-26T00:01:26.891Z,19.36
2023-08-26T00:02:26.882Z,19.34
2023-08-26T00:03:27.032Z,19.31
2023-08-26T00:04:26.945Z,19.36
2023-08-26T00:05:26.931Z,19.39
2023-08-26T00:06:26.951Z,19.34
2023-08-26T00:07:26.949Z,19.30
2023-08-26T00:08:26.998Z,19.24
2023-08-26T00:09:26.982Z,19.24
2023-08-26T00:10:27.003Z,19.26
2023-08-26T00:11:27.019Z,19.26
2023-08-26T00:12:27.029Z,19.26
2023-08-26T00:13:27.061Z,19.24
2023-08-26T00:14:27.067Z,19.21
2023-08-26T00:15:27.072Z,19.19
2023-08-26T00:16:27.112Z,19.18
2023-08-26T00:17:27.138Z,19.18
2023-08-26T00:18:27.130Z,19.16
2023-08-26T00:19:27.136Z,19.22
2023-08-26T00:20:27.142Z,19.24
2023-08-26T00:21:27.151Z,19.26
2023-08-26T00:22:27.182Z,19.26
2023-08-26T00:23:27.175Z,19.29
2023-08-26T00:24:27.202Z,19.29
2023-08-26T00:25:27.214Z,19.27
2023-08-26T00:26:27.234Z,19.30
2023-08-26T00:27:27.276Z,19.31
2023-08-26T00:28:27.269Z,19.31
2023-08-26T00:29:27.285Z,19.30
2023-08-26T00:30:27.285Z,19.30
2023-08-26T00:31:27.371Z,19.30
2023-08-26T00:32:27.391Z,19.31
2023-08-26T00:33:27.334Z,19.31
2023-08-26T00:34:27.357Z,19.31
2023-08-26T00:35:27.366Z,19.33
2023-08-26T00:36:27.409Z,19.33
2023-08-26T00:37:27.405Z,19.31
2023-08-26T00:38:27.431Z,19.30
2023-08-26T00:39:27.430Z,19.27
2023-08-26T00:40:27.452Z,19.30
2023-08-26T00:41:27.489Z,19.30
2023-08-26T00:42:27.488Z,19.30
2023-08-26T00:43:27.492Z,19.31
2023-08-26T00:44:27.524Z,19.31
2023-08-26T00:45:27.542Z,19.29
2023-08-26T00:46:27.577Z,19.26
2023-08-26T00:47:27.574Z,19.22
2023-08-26T00:48:27.577Z,19.21
2023-08-26T00:49:27.581Z,19.18
2023-08-26T00:50:27.626Z,19.21
2023-08-26T00:51:27.615Z,19.22
2023-08-26T00:52:27.641Z,19.16
2023-08-26T00:53:27.671Z,19.14
2023-08-26T00:54:27.674Z,19.12
2023-08-26T00:55:27.693Z,19.12
2023-08-26T00:56:27.701Z,19.15
2023-08-26T00:57:27.715Z,19.16
2023-08-26T00:58:27.722Z,19.16
2023-08-26T00:59:27.766Z,19.19
2023-08-26T01:00:27.779Z,19.19
2023-08-26T01:01:27.784Z,19.22
2023-08-26T01:02:27.808Z,19.22
2023-08-26T01:03:27.926Z,19.27
2023-08-26T01:04:27.843Z,19.22
2023-08-26T01:05:27.813Z,19.24
2023-08-26T01:06:27.840Z,19.26
2023-08-26T01:07:27.843Z,19.27
2023-08-26T01:08:27.888Z,19.31
2023-08-26T01:09:27.880Z,19.30
2023-08-26T01:10:27.892Z,19.30
2023-08-26T01:11:27.899Z,19.30
2023-08-26T01:12:27.923Z,19.33
2023-08-26T01:13:27.947Z,19.33
2023-08-26T01:14:27.953Z,19.31
2023-08-26T01:15:27.976Z,19.31
2023-08-26T01:16:28.041Z,19.31
2023-08-26T01:17:28.043Z,19.31
2023-08-26T01:18:28.030Z,19.26
2023-08-26T01:19:28.018Z,19.26
2023-08-26T01:20:28.043Z,19.26
2023-08-26T01:21:28.056Z,19.26
2023-08-26T01:22:28.102Z,19.24
2023-08-26T01:23:28.109Z,19.24
2023-08-26T01:24:28.116Z,19.21
2023-08-26T01:25:28.120Z,19.19
2023-08-26T01:26:28.132Z,19.16
2023-08-26T01:27:28.169Z,19.16
2023-08-26T01:28:28.162Z,19.16
2023-08-26T01:29:28.172Z,19.21
2023-08-26T01:30:28.190Z,19.21
2023-08-26T01:31:28.205Z,19.21
2023-08-26T01:32:28.266Z,19.18
2023-08-26T01:33:28.240Z,19.15
2023-08-26T01:34:28.276Z,19.11
2023-08-26T01:35:28.273Z,19.12
2023-08-26T01:36:28.336Z,19.14
2023-08-26T01:37:28.306Z,19.14
2023-08-26T01:38:28.330Z,19.16
2023-08-26T01:39:28.330Z,19.15
2023-08-26T01:40:28.358Z,19.16
2023-08-26T01:41:28.383Z,19.14
2023-08-26T01:42:28.375Z,19.07
2023-08-26T01:43:28.392Z,19.02
2023-08-26T01:44:28.396Z,19.02
2023-08-26T01:45:28.417Z,19.08
2023-08-26T01:46:28.457Z,19.11
2023-08-26T01:47:28.500Z,19.11
2023-08-26T01:48:28.470Z,19.12
2023-08-26T01:49:28.474Z,19.14
2023-08-26T01:50:28.519Z,19.15
2023-08-26T01:51:28.535Z,19.11
2023-08-26T01:52:28.532Z,19.11
2023-08-26T01:53:28.537Z,19.09
2023-08-26T01:54:28.555Z,19.11
2023-08-26T01:55:28.591Z,19.11
2023-08-26T01:56:28.610Z,19.09
2023-08-26T01:57:28.594Z,19.07
2023-08-26T01:58:28.610Z,19.07
2023-08-26T01:59:28.641Z,19.04
2023-08-26T02:00:28.664Z,19.02
2023-08-26T02:01:28.682Z,19.02
2023-08-26T02:02:28.748Z,19.07
2023-08-26T02:03:28.748Z,19.08
2023-08-26T02:04:28.724Z,19.08
2023-08-26T02:05:28.725Z,19.09
2023-08-26T02:06:28.755Z,19.09
2023-08-26T02:07:28.734Z,19.11
2023-08-26T02:08:28.758Z,19.09
2023-08-26T02:09:28.767Z,19.07
2023-08-26T02:10:28.787Z,19.08
2023-08-26T02:11:28.827Z,19.00
2023-08-26T02:12:28.812Z,19.02
2023-08-26T02:13:28.850Z,19.04
2023-08-26T02:14:28.852Z,19.07
2023-08-26T02:15:28.859Z,19.08
2023-08-26T02:16:28.957Z,19.11
2023-08-26T02:17:28.895Z,19.11
2023-08-26T02:18:28.926Z,19.09
2023-08-26T02:19:28.923Z,19.08
2023-08-26T02:20:28.936Z,19.07
2023-08-26T02:21:28.948Z,19.08
2023-08-26T02:22:28.968Z,19.08
2023-08-26T02:23:29.008Z,19.04
2023-08-26T02:24:28.994Z,19.02
2023-08-26T02:25:29.757Z,19.00
2023-08-26T02:26:29.028Z,19.00
2023-08-26T02:27:29.043Z,18.98
2023-08-26T02:28:29.082Z,18.96
2023-08-26T02:29:29.085Z,18.95
2023-08-26T02:30:29.098Z,18.96
2023-08-26T02:31:29.172Z,18.95
2023-08-26T02:32:29.146Z,18.96
2023-08-26T02:33:29.158Z,18.93
2023-08-26T02:34:29.146Z,18.88
2023-08-26T02:35:29.177Z,18.84
2023-08-26T02:36:29.182Z,18.86
2023-08-26T02:37:29.217Z,18.88
2023-08-26T02:38:29.213Z,18.86
2023-08-26T02:39:29.229Z,18.84
2023-08-26T02:40:29.237Z,18.84
2023-08-26T02:41:29.256Z,18.86
2023-08-26T02:42:29.296Z,18.90
2023-08-26T02:43:29.295Z,18.93
2023-08-26T02:44:29.309Z,18.93
2023-08-26T02:45:29.329Z,18.93
2023-08-26T02:46:29.342Z,18.95
2023-08-26T02:47:29.408Z,18.96
2023-08-26T02:48:29.371Z,18.98
2023-08-26T02:49:29.383Z,18.98
2023-08-26T02:50:29.401Z,19.00
2023-08-26T02:51:29.432Z,19.02
2023-08-26T02:52:29.422Z,19.00
2023-08-26T02:53:29.457Z,19.02
2023-08-26T02:54:29.454Z,19.00
2023-08-26T02:55:29.485Z,18.98
2023-08-26T02:56:29.485Z,18.93
2023-08-26T02:57:30.468Z,18.95
2023-08-26T02:58:29.502Z,18.98
2023-08-26T02:59:29.524Z,18.99
2023-08-26T03:00:29.552Z,18.98
2023-08-26T03:01:29.601Z,18.95
2023-08-26T03:02:29.648Z,18.95
2023-08-26T03:03:29.690Z,18.95
2023-08-26T03:04:29.593Z,18.99
2023-08-26T03:05:29.621Z,19.00
2023-08-26T03:06:29.623Z,18.99
2023-08-26T03:07:29.632Z,18.92
2023-08-26T03:08:29.659Z,18.89
2023-08-26T03:09:29.667Z,18.88
2023-08-26T03:10:29.693Z,18.89
2023-08-26T03:11:29.693Z,18.90
2023-08-26T03:12:29.695Z,18.90
2023-08-26T03:13:29.719Z,18.90
2023-08-26T03:14:29.750Z,18.90
2023-08-26T03:15:29.770Z,18.89
2023-08-26T03:16:29.764Z,18.89
2023-08-26T03:17:29.796Z,18.92
2023-08-26T03:18:29.781Z,18.93
2023-08-26T03:19:29.828Z,18.93
2023-08-26T03:20:29.821Z,18.92
2023-08-26T03:21:29.838Z,18.92
2023-08-26T03:22:29.843Z,18.90
2023-08-26T03:23:29.865Z,18.92
2023-08-26T03:24:29.899Z,18.92
2023-08-26T03:25:29.904Z,18.93
2023-08-26T03:26:29.904Z,18.93
2023-08-26T03:27:29.925Z,18.95
2023-08-26T03:28:29.932Z,18.93
2023-08-26T03:29:29.978Z,18.95
2023-08-26T03:30:29.968Z,18.96
2023-08-26T03:31:30.016Z,18.98
2023-08-26T03:32:30.016Z,18.95
2023-08-26T03:33:30.029Z,18.93
2023-08-26T03:34:30.030Z,18.93
2023-08-26T03:35:30.053Z,18.93
2023-08-26T03:36:30.070Z,18.93
2023-08-26T03:37:30.088Z,18.95
2023-08-26T03:38:30.093Z,18.95
2023-08-26T03:39:30.110Z,18.90
2023-08-26T03:40:30.113Z,18.92
2023-08-26T03:41:30.171Z,18.89
2023-08-26T03:42:30.164Z,18.88
2023-08-26T03:43:30.160Z,18.88
2023-08-26T03:44:30.168Z,18.86
2023-08-26T03:45:30.204Z,18.89
2023-08-26T03:46:30.198Z,18.89
2023-08-26T03:47:30.245Z,18.90
2023-08-26T03:48:30.230Z,18.90
2023-08-26T03:49:30.252Z,18.90
2023-08-26T03:50:30.268Z,18.89
2023-08-26T03:51:30.293Z,18.90
2023-08-26T03:52:30.319Z,18.89
2023-08-26T03:53:30.317Z,18.90
2023-08-26T03:54:30.328Z,18.90
2023-08-26T03:55:30.349Z,18.90
2023-08-26T03:56:30.400Z,18.89
2023-08-26T03:57:30.410Z,18.90
2023-08-26T03:58:30.403Z,18.89
2023-08-26T03:59:30.444Z,18.90
2023-08-26T04:00:30.433Z,18.90
2023-08-26T04:01:30.510Z,18.89
2023-08-26T04:02:30.467Z,18.90
2023-08-26T04:03:30.592Z,18.93
2023-08-26T04:04:30.499Z,18.95
2023-08-26T04:05:30.519Z,18.96
2023-08-26T04:06:30.570Z,18.92
2023-08-26T04:07:30.560Z,18.89
2023-08-26T04:08:30.564Z,18.88
2023-08-26T04:09:30.589Z,18.86
2023-08-26T04:10:30.606Z,18.88
2023-08-26T04:11:30.639Z,18.84
2023-08-26T04:12:30.620Z,18.83
2023-08-26T04:13:30.657Z,18.84
2023-08-26T04:14:30.654Z,18.84
2023-08-26T04:15:30.733Z,18.86
2023-08-26T04:16:30.679Z,18.88
2023-08-26T04:17:30.711Z,18.88
2023-08-26T04:18:30.717Z,18.89
2023-08-26T04:19:30.720Z,18.86
2023-08-26T04:20:30.751Z,18.86
2023-08-26T04:21:30.778Z,18.88
2023-08-26T04:22:30.771Z,18.89
2023-08-26T04:23:30.791Z,18.90
2023-08-26T04:24:30.810Z,18.90
2023-08-26T04:25:30.821Z,18.92
2023-08-26T04:26:30.820Z,18.93
2023-08-26T04:27:30.845Z,18.95
2023-08-26T04:28:30.854Z,18.96
2023-08-26T04:29:30.892Z,18.95
2023-08-26T04:30:30.889Z,18.96
2023-08-26T04:31:30.978Z,18.93
2023-08-26T04:32:30.915Z,18.92
2023-08-26T04:33:30.937Z,18.90
2023-08-26T04:34:30.969Z,18.89
2023-08-26T04:35:30.966Z,18.88
2023-08-26T04:36:30.982Z,18.88
2023-08-26T04:37:31.001Z,18.86
2023-08-26T04:38:31.036Z,18.84
2023-08-26T04:39:31.068Z,18.84
2023-08-26T04:40:31.038Z,18.81
2023-08-26T04:41:31.059Z,18.81
2023-08-26T04:42:31.073Z,18.81
2023-08-26T04:43:31.124Z,18.81
2023-08-26T04:44:31.128Z,18.83
2023-08-26T04:45:31.135Z,18.83
2023-08-26T04:46:31.173Z,18.84
2023-08-26T04:47:31.218Z,18.83
2023-08-26T04:48:31.192Z,18.81
2023-08-26T04:49:31.181Z,18.80
2023-08-26T04:50:31.194Z,18.80
2023-08-26T04:51:31.226Z,18.80
2023-08-26T04:52:31.328Z,18.78
2023-08-26T04:53:31.271Z,18.80
2023-08-26T04:54:31.261Z,18.83
2023-08-26T04:55:33.552Z,18.84
2023-08-26T04:56:31.299Z,18.86
2023-08-26T04:57:31.335Z,18.89
2023-08-26T04:58:31.327Z,18.92
2023-08-26T04:59:31.351Z,18.95
2023-08-26T05:00:31.432Z,18.95
2023-08-26T05:01:31.400Z,18.95
2023-08-26T05:02:31.542Z,18.95
2023-08-26T05:03:31.489Z,18.93
2023-08-26T05:04:31.417Z,18.92
2023-08-26T05:05:31.466Z,18.90
2023-08-26T05:06:31.468Z,18.92
2023-08-26T05:07:31.467Z,18.89
2023-08-26T05:08:31.488Z,18.90
2023-08-26T05:09:31.498Z,18.95
2023-08-26T05:10:31.508Z,18.95
2023-08-26T05:11:31.571Z,18.95
2023-08-26T05:12:31.550Z,18.98
2023-08-26T05:13:31.558Z,18.98
2023-08-26T05:14:31.573Z,18.98
2023-08-26T05:15:31.626Z,18.99
2023-08-26T05:16:31.665Z,18.99
2023-08-26T05:17:31.658Z,18.96
2023-08-26T05:18:31.638Z,18.93
2023-08-26T05:19:31.653Z,18.92
2023-08-26T05:20:31.740Z,18.93
2023-08-26T05:21:31.695Z,18.95
2023-08-26T05:22:31.695Z,18.96
2023-08-26T05:23:31.718Z,18.95
2023-08-26T05:24:31.763Z,18.96
2023-08-26T05:25:31.772Z,18.95
2023-08-26T05:26:31.762Z,18.98
2023-08-26T05:27:31.769Z,18.98
2023-08-26T05:28:31.796Z,18.98
2023-08-26T05:29:31.833Z,18.96
2023-08-26T05:30:31.833Z,18.98
2023-08-26T05:31:31.823Z,18.96
2023-08-26T05:32:31.876Z,18.98
2023-08-26T05:33:31.861Z,18.99
2023-08-26T05:34:31.886Z,19.02
2023-08-26T05:35:31.876Z,19.09
2023-08-26T05:36:31.882Z,19.09
2023-08-26T05:37:31.906Z,19.11
2023-08-26T05:38:31.933Z,19.11
2023-08-26T05:39:31.949Z,19.12
2023-08-26T05:40:31.947Z,19.14
2023-08-26T05:41:31.959Z,19.16
2023-08-26T05:42:31.992Z,19.16
2023-08-26T05:43:32.008Z,19.16
2023-08-26T05:44:32.021Z,19.15
2023-08-26T05:45:32.016Z,19.16
2023-08-26T05:46:32.057Z,19.18
2023-08-26T05:47:32.082Z,19.18
2023-08-26T05:48:32.069Z,19.19
2023-08-26T05:49:32.069Z,19.18
2023-08-26T05:50:32.084Z,19.19
2023-08-26T05:51:32.111Z,19.19
2023-08-26T05:52:32.131Z,19.21
2023-08-26T05:53:32.168Z,19.21
2023-08-26T05:54:32.142Z,19.21
2023-08-26T05:55:32.159Z,19.21
2023-08-26T05:56:32.168Z,19.22
2023-08-26T05:57:32.322Z,19.22
2023-08-26T05:58:32.202Z,19.24
2023-08-26T05:59:33.546Z,19.24
2023-08-26T06:00:32.277Z,19.21
2023-08-26T06:01:32.318Z,19.22
2023-08-26T06:02:32.307Z,19.24
2023-08-26T06:03:32.396Z,19.26
2023-08-26T06:04:32.297Z,19.26
2023-08-26T06:05:32.320Z,19.30
2023-08-26T06:06:32.346Z,19.30
2023-08-26T06:07:32.350Z,19.31
2023-08-26T06:08:32.364Z,19.33
2023-08-26T06:09:32.380Z,19.34
2023-08-26T06:10:32.382Z,19.34
2023-08-26T06:11:32.426Z,19.36
2023-08-26T06:12:32.414Z,19.36
2023-08-26T06:13:32.443Z,19.37
2023-08-26T06:14:32.446Z,19.37
2023-08-26T06:15:32.466Z,19.39
2023-08-26T06:16:32.545Z,19.41
2023-08-26T06:17:32.548Z,19.41
2023-08-26T06:18:32.517Z,19.44
2023-08-26T06:19:32.523Z,19.44
2023-08-26T06:20:32.555Z,19.45
2023-08-26T06:21:32.577Z,19.47
2023-08-26T06:22:32.568Z,19.47
2023-08-26T06:23:32.591Z,19.47
2023-08-26T06:24:32.611Z,19.49
2023-08-26T06:25:33.923Z,19.49
2023-08-26T06:26:32.637Z,19.48
2023-08-26T06:27:32.676Z,19.49
2023-08-26T06:28:32.664Z,19.51
2023-08-26T06:29:32.707Z,19.48
2023-08-26T06:30:32.721Z,19.48
2023-08-26T06:31:32.756Z,19.48
2023-08-26T06:32:32.748Z,19.51
2023-08-26T06:33:32.736Z,19.52
2023-08-26T06:34:32.791Z,19.52
2023-08-26T06:35:32.806Z,19.55
2023-08-26T06:36:32.791Z,19.55
2023-08-26T06:37:32.803Z,19.54
2023-08-26T06:38:32.822Z,19.51
2023-08-26T06:39:32.833Z,19.54
2023-08-26T06:40:32.845Z,19.56
2023-08-26T06:41:32.853Z,19.56
2023-08-26T06:42:32.881Z,19.55
2023-08-26T06:43:32.917Z,19.54
2023-08-26T06:44:32.907Z,19.56
2023-08-26T06:45:32.919Z,19.62
2023-08-26T06:46:32.975Z,19.63
2023-08-26T06:47:32.975Z,19.66
2023-08-26T06:48:32.987Z,19.69
2023-08-26T06:49:32.973Z,19.70
2023-08-26T06:50:33.001Z,19.73
2023-08-26T06:51:33.002Z,19.77
2023-08-26T06:52:33.028Z,19.82
2023-08-26T06:53:33.063Z,19.89
2023-08-26T06:54:33.629Z,19.92
2023-08-26T06:55:33.066Z,19.94
2023-08-26T06:56:33.082Z,19.94
2023-08-26T06:57:33.108Z,19.94
2023-08-26T06:58:33.124Z,19.92
2023-08-26T06:59:33.124Z,19.89
2023-08-26T07:00:33.139Z,19.88
2023-08-26T07:01:33.218Z,19.94
2023-08-26T07:02:33.247Z,19.96
2023-08-26T07:03:33.227Z,19.99
2023-08-26T07:04:33.205Z,20.00
2023-08-26T07:05:33.302Z,20.02
2023-08-26T07:06:33.246Z,20.06
2023-08-26T07:07:33.267Z,20.10
2023-08-26T07:08:33.266Z,20.13
2023-08-26T07:09:33.282Z,20.18
2023-08-26T07:10:33.327Z,20.21
2023-08-26T07:11:33.347Z,20.25
2023-08-26T07:12:33.359Z,20.34
2023-08-26T07:13:33.351Z,20.40
2023-08-26T07:14:33.378Z,20.47
2023-08-26T07:15:33.387Z,20.55
2023-08-26T07:16:33.411Z,20.56
2023-08-26T07:17:33.441Z,20.56
2023-08-26T07:18:33.430Z,20.60
2023-08-26T07:19:33.444Z,20.67
2023-08-26T07:20:33.476Z,20.77
2023-08-26T07:21:33.481Z,20.81
2023-08-26T07:22:33.530Z,20.82
2023-08-26T07:23:33.517Z,20.81
2023-08-26T07:24:33.539Z,20.82
2023-08-26T07:25:33.570Z,20.81
2023-08-26T07:26:33.566Z,20.82
2023-08-26T07:27:33.582Z,20.82
2023-08-26T07:28:33.593Z,20.88
2023-08-26T07:29:33.605Z,20.95
2023-08-26T07:30:33.648Z,20.99
2023-08-26T07:31:33.649Z,20.97
2023-08-26T07:32:33.683Z,21.00
2023-08-26T07:33:33.667Z,21.00
2023-08-26T07:34:33.694Z,20.99
2023-08-26T07:35:33.719Z,21.00
2023-08-26T07:36:33.718Z,20.92
2023-08-26T07:37:33.766Z,20.90
2023-08-26T07:38:33.755Z,20.90
2023-08-26T07:39:33.782Z,20.88
2023-08-26T07:40:33.812Z,20.82
2023-08-26T07:41:33.797Z,20.90
2023-08-26T07:42:33.816Z,20.95
2023-08-26T07:43:33.871Z,20.99
2023-08-26T07:44:33.883Z,21.00
2023-08-26T07:45:33.870Z,21.06
2023-08-26T07:49:33.930Z,20.97
2023-08-26T07:50:33.930Z,20.92
2023-08-26T07:51:33.942Z,20.95
2023-08-26T07:52:33.959Z,21.02
2023-08-26T07:53:33.978Z,21.06
2023-08-26T07:54:34.092Z,21.11
2023-08-26T07:55:34.002Z,21.12
2023-08-26T07:56:34.038Z,21.12
2023-08-26T07:57:34.105Z,21.14
2023-08-26T07:58:34.079Z,21.14
2023-08-26T07:59:34.065Z,21.12
2023-08-26T08:00:34.085Z,21.12
2023-08-26T08:01:34.156Z,21.15
2023-08-26T08:02:34.157Z,21.18
2023-08-26T08:03:34.145Z,21.15
2023-08-26T08:04:34.152Z,21.14
2023-08-26T08:05:34.155Z,21.09
2023-08-26T08:06:34.188Z,21.07
2023-08-26T08:07:34.214Z,21.06
2023-08-26T08:08:34.215Z,21.06
2023-08-26T08:09:34.215Z,21.02
2023-08-26T08:10:34.233Z,21.00
2023-08-26T08:11:34.255Z,21.02
2023-08-26T08:12:34.286Z,21.03
2023-08-26T08:13:34.279Z,21.06
2023-08-26T08:14:34.298Z,21.03
2023-08-26T08:15:34.347Z,21.05
2023-08-26T08:16:34.330Z,21.05
2023-08-26T08:17:34.377Z,21.12
2023-08-26T08:18:34.354Z,21.21
2023-08-26T08:19:34.362Z,21.33
2023-08-26T08:20:34.383Z,21.42
2023-08-26T08:21:34.433Z,21.46
2023-08-26T08:22:34.444Z,21.48
2023-08-26T08:23:34.428Z,21.45
2023-08-26T08:24:34.443Z,21.40
2023-08-26T08:25:34.460Z,21.35
2023-08-26T08:26:34.494Z,21.32
2023-08-26T08:27:34.477Z,21.27
2023-08-26T08:28:34.499Z,21.25
2023-08-26T08:29:34.549Z,21.24
2023-08-26T08:30:34.557Z,21.22
2023-08-26T08:31:34.698Z,21.18
2023-08-26T08:32:34.636Z,21.18
2023-08-26T08:33:34.587Z,21.20
2023-08-26T08:34:34.593Z,21.22
2023-08-26T08:35:34.647Z,21.21
2023-08-26T08:36:34.650Z,21.24
2023-08-26T08:37:34.639Z,21.25
2023-08-26T08:38:34.675Z,21.30
2023-08-26T08:39:34.676Z,21.32
2023-08-26T08:40:34.737Z,21.33
2023-08-26T08:41:34.712Z,21.33
2023-08-26T08:42:34.733Z,21.33
2023-08-26T08:43:34.753Z,21.30
2023-08-26T08:44:34.772Z,21.30
2023-08-26T08:45:34.802Z,21.27
2023-08-26T08:46:34.817Z,21.27
2023-08-26T08:47:34.844Z,21.25
2023-08-26T08:48:34.840Z,21.29
2023-08-26T08:49:34.871Z,21.29
2023-08-26T08:50:34.879Z,21.30
2023-08-26T08:51:34.879Z,21.27
2023-08-26T08:52:34.903Z,21.25
2023-08-26T08:53:34.931Z,21.27
2023-08-26T08:54:34.972Z,21.29
2023-08-26T08:55:34.961Z,21.33
2023-08-26T08:56:34.973Z,21.35
2023-08-26T08:57:34.983Z,21.40
2023-08-26T08:58:35.008Z,21.45
2023-08-26T08:59:35.041Z,21.46
2023-08-26T09:00:35.072Z,21.48
2023-08-26T09:01:35.050Z,21.45
2023-08-26T09:02:35.143Z,21.46
2023-08-26T09:03:35.101Z,21.43
2023-08-26T09:04:35.129Z,21.42
2023-08-26T09:05:35.122Z,21.42
2023-08-26T09:06:35.141Z,21.40
2023-08-26T09:07:35.144Z,21.42
2023-08-26T09:08:35.194Z,21.45
2023-08-26T09:09:42.632Z,21.50
2023-08-26T09:10:35.212Z,21.51
2023-08-26T09:11:36.231Z,21.54
2023-08-26T09:12:35.236Z,21.55
2023-08-26T09:13:35.269Z,21.60
2023-08-26T09:14:35.268Z,21.64
2023-08-26T09:15:35.278Z,21.70
2023-08-26T09:16:35.304Z,21.80
2023-08-26T09:17:35.359Z,21.91
2023-08-26T09:18:35.342Z,21.95
2023-08-26T09:19:35.354Z,22.06
2023-08-26T09:20:35.393Z,22.14
2023-08-26T09:21:35.384Z,22.22
2023-08-26T09:22:35.435Z,22.22
2023-08-26T09:23:35.444Z,22.23
2023-08-26T09:24:35.439Z,22.20
2023-08-26T09:25:35.463Z,22.20
2023-08-26T09:26:35.485Z,22.18
2023-08-26T09:27:35.652Z,22.23
2023-08-26T09:28:35.498Z,22.23
2023-08-26T09:29:35.513Z,22.22
2023-08-26T09:30:35.558Z,22.23
2023-08-26T09:31:35.564Z,22.23
2023-08-26T09:32:35.641Z,22.22
2023-08-26T09:33:35.758Z,22.15
2023-08-26T09:34:35.611Z,22.14
2023-08-26T09:36:35.660Z,22.13
2023-08-26T09:37:35.649Z,22.13
2023-08-26T09:38:35.678Z,22.17
2023-08-26T09:39:35.688Z,22.23
2023-08-26T09:40:35.705Z,22.32
2023-08-26T09:41:35.791Z,22.32
2023-08-26T09:42:35.736Z,22.30
2023-08-26T09:43:35.740Z,22.28
2023-08-26T09:44:35.766Z,22.29
2023-08-26T09:45:35.771Z,22.30
2023-08-26T09:46:35.932Z,22.32
2023-08-26T09:47:35.881Z,22.35
2023-08-26T09:48:35.828Z,22.39
2023-08-26T09:49:35.859Z,22.41
2023-08-26T09:50:35.870Z,22.41
2023-08-26T09:51:35.865Z,22.44
2023-08-26T09:52:35.884Z,22.51
2023-08-26T09:53:35.902Z,22.53
2023-08-26T09:54:35.925Z,22.48
2023-08-26T09:55:35.930Z,22.45
2023-08-26T09:56:35.953Z,22.43
2023-08-26T09:57:35.967Z,22.41
2023-08-26T09:58:35.989Z,22.44
2023-08-26T09:59:36.022Z,22.39
2023-08-26T10:00:36.026Z,22.39
2023-08-26T10:01:36.059Z,22.41
2023-08-26T10:02:36.114Z,22.41
2023-08-26T10:03:36.209Z,22.39
2023-08-26T10:04:36.104Z,22.38
2023-08-26T10:05:36.099Z,22.41
2023-08-26T10:06:36.115Z,22.41
2023-08-26T10:07:36.123Z,22.41
2023-08-26T10:08:36.167Z,22.44
2023-08-26T10:09:36.189Z,22.50
2023-08-26T10:10:36.179Z,22.57
2023-08-26T10:11:36.184Z,22.63
2023-08-26T10:12:36.208Z,22.66
2023-08-26T10:13:36.236Z,22.75
2023-08-26T10:14:36.244Z,22.80
2023-08-26T10:15:36.257Z,22.81
2023-08-26T10:16:36.295Z,22.78
2023-08-26T10:17:36.378Z,22.76
2023-08-26T10:18:36.315Z,22.75
2023-08-26T10:19:36.317Z,22.73
2023-08-26T10:20:36.333Z,22.73
2023-08-26T10:21:36.363Z,22.72
2023-08-26T10:22:36.388Z,22.73
2023-08-26T10:23:36.403Z,22.81
2023-08-26T10:24:36.401Z,22.90
2023-08-26T10:25:36.410Z,22.99
2023-08-26T10:26:36.429Z,23.02
2023-08-26T10:27:36.468Z,23.09
2023-08-26T10:28:36.467Z,23.10
2023-08-26T10:29:36.481Z,23.12
2023-08-26T10:30:36.494Z,23.12
2023-08-26T10:31:36.555Z,23.13
2023-08-26T10:32:36.590Z,23.13
2023-08-26T10:33:36.538Z,23.15
2023-08-26T10:34:36.563Z,23.17
2023-08-26T10:35:36.573Z,23.13
2023-08-26T10:36:36.615Z,23.12
2023-08-26T10:37:36.631Z,23.13
2023-08-26T10:38:36.632Z,23.18
2023-08-26T10:39:36.643Z,23.21
2023-08-26T10:40:36.664Z,23.23
2023-08-26T10:41:36.695Z,23.27
2023-08-26T10:42:36.700Z,23.47
2023-08-26T10:43:36.720Z,23.62
2023-08-26T10:44:36.730Z,23.63
2023-08-26T10:45:36.751Z,23.59
2023-08-26T10:46:36.786Z,23.54
2023-08-26T10:47:36.816Z,23.50
2023-08-26T10:48:36.792Z,23.50
2023-08-26T10:49:36.814Z,23.51
2023-08-26T10:50:36.848Z,23.55
2023-08-26T10:51:36.851Z,23.58
2023-08-26T10:52:36.857Z,23.58
2023-08-26T10:53:36.878Z,23.63
2023-08-26T10:54:36.897Z,23.71
2023-08-26T10:55:36.935Z,23.73
2023-08-26T10:56:36.937Z,23.73
2023-08-26T10:57:36.950Z,23.68
2023-08-26T10:58:36.970Z,23.65
2023-08-26T10:59:37.025Z,23.69
2023-08-26T11:00:37.016Z,23.68
2023-08-26T11:01:37.150Z,23.65
2023-08-26T11:02:37.115Z,23.65
2023-08-26T11:03:37.137Z,23.65
2023-08-26T11:04:37.083Z,23.65
2023-08-26T11:05:37.098Z,23.62
2023-08-26T11:06:37.097Z,23.62
2023-08-26T11:07:37.122Z,23.62
2023-08-26T11:08:37.127Z,23.58
2023-08-26T11:09:37.170Z,23.48
2023-08-26T11:10:37.161Z,23.47
2023-08-26T11:11:37.193Z,23.46
2023-08-26T11:12:37.179Z,23.48
2023-08-26T11:13:37.208Z,23.46
2023-08-26T11:14:37.250Z,23.46
2023-08-26T11:15:37.263Z,23.46
2023-08-26T11:16:37.299Z,23.44
2023-08-26T11:18:37.305Z,23.46
2023-08-26T11:19:37.323Z,23.43
2023-08-26T11:20:37.313Z,23.37
2023-08-26T11:21:37.334Z,23.32
2023-08-26T11:22:37.340Z,23.37
2023-08-26T11:23:37.428Z,23.39
2023-08-26T11:24:37.374Z,23.41
2023-08-26T11:25:37.460Z,23.44
2023-08-26T11:26:37.459Z,23.46
2023-08-26T11:27:37.423Z,23.51
2023-08-26T11:28:37.466Z,23.55
2023-08-26T11:29:37.455Z,23.59
2023-08-26T11:30:37.463Z,23.66
2023-08-26T11:31:37.521Z,23.66
2023-08-26T11:32:37.513Z,23.66
2023-08-26T11:33:37.703Z,23.65
2023-08-26T11:34:37.525Z,23.65
2023-08-26T11:35:37.565Z,23.71
2023-08-26T11:36:37.570Z,23.84
2023-08-26T11:37:37.615Z,23.95
2023-08-26T11:38:37.600Z,23.99
2023-08-26T11:39:37.627Z,23.99
2023-08-26T11:40:37.680Z,23.96
2023-08-26T11:41:37.641Z,23.87
2023-08-26T11:42:37.671Z,23.80
2023-08-26T11:43:37.781Z,23.78
2023-08-26T11:44:37.700Z,23.86
2023-08-26T11:45:37.705Z,23.88
2023-08-26T11:46:37.731Z,23.92
2023-08-26T11:47:37.807Z,23.93
2023-08-26T11:48:38.319Z,23.93
2023-08-26T11:49:37.767Z,23.98
2023-08-26T11:50:37.777Z,24.06
2023-08-26T11:51:37.826Z,24.11
2023-08-26T11:52:37.812Z,24.13
2023-08-26T11:53:37.839Z,24.10
2023-08-26T11:54:37.840Z,24.02
2023-08-26T11:55:37.876Z,23.98
2023-08-26T11:56:37.893Z,23.96
2023-08-26T11:57:37.892Z,23.96
2023-08-26T11:58:37.915Z,23.92
2023-08-26T11:59:37.925Z,23.88
2023-08-26T12:00:37.957Z,23.87
2023-08-26T12:01:38.252Z,23.86
2023-08-26T12:02:37.966Z,23.83
2023-08-26T12:03:38.013Z,23.81
2023-08-26T12:04:37.993Z,23.81
2023-08-26T12:05:38.034Z,23.78
2023-08-26T12:06:38.032Z,23.74
2023-08-26T12:07:38.048Z,23.71
2023-08-26T12:08:38.064Z,23.62
2023-08-26T12:09:38.087Z,23.56
2023-08-26T12:10:38.122Z,23.58
2023-08-26T12:11:39.382Z,23.58
2023-08-26T12:12:38.143Z,23.59
2023-08-26T12:13:38.155Z,23.63
2023-08-26T12:14:38.202Z,23.66
2023-08-26T12:15:38.208Z,23.69
2023-08-26T12:16:38.300Z,23.66
2023-08-26T12:17:38.228Z,23.62
2023-08-26T12:18:38.236Z,23.58
2023-08-26T12:19:38.276Z,23.55
2023-08-26T12:20:38.272Z,23.48
2023-08-26T12:21:38.283Z,23.44
2023-08-26T12:22:38.296Z,23.46
2023-08-26T12:23:38.317Z,23.48
2023-08-26T12:24:38.341Z,23.51
2023-08-26T12:25:38.399Z,23.54
2023-08-26T12:26:38.352Z,23.51
2023-08-26T12:27:38.376Z,23.50
2023-08-26T12:28:38.395Z,23.48
2023-08-26T12:29:38.417Z,23.50
2023-08-26T12:30:38.422Z,23.44
2023-08-26T12:31:38.464Z,23.43
2023-08-26T12:32:38.459Z,23.34
2023-08-26T12:33:53.659Z,23.27
2023-08-26T12:34:38.480Z,23.25
2023-08-26T12:35:38.500Z,23.24
2023-08-26T12:36:38.500Z,23.24
2023-08-26T12:37:38.524Z,23.25
2023-08-26T12:38:38.550Z,23.24
2023-08-26T12:39:38.562Z,23.24
2023-08-26T12:40:38.565Z,23.18
2023-08-26T12:41:38.589Z,23.17
2023-08-26T12:42:38.621Z,23.17
2023-08-26T12:43:38.640Z,23.18
2023-08-26T12:44:38.634Z,23.20
2023-08-26T12:45:38.696Z,23.17
2023-08-26T12:46:38.672Z,23.17
2023-08-26T12:47:38.783Z,23.10
2023-08-26T12:49:38.725Z,23.06
2023-08-26T12:50:38.729Z,23.06
2023-08-26T12:51:38.756Z,23.03
2023-08-26T12:52:38.794Z,23.02
2023-08-26T12:53:38.785Z,22.98
2023-08-26T12:54:38.781Z,22.94
2023-08-26T12:55:38.810Z,22.91
2023-08-26T12:56:38.842Z,22.85
2023-08-26T12:57:38.891Z,22.83
2023-08-26T12:58:38.854Z,22.80